sensor_id;sensor_type;location;lat;lon;timestamp;P1;durP1;ratioP1;P2;durP2;ratioP2
27199;SDS011;14714;48.106;11.546;2023-06-19T00:00:32;9.43;;;8.30;;
27199;SDS011;14714;48.106;11.546;2023-06-19T00:02:59;11.75;;;8.93;;
27199;SDS011;14714;48.106;11.546;2023-06-19T00:05:26;10.40;;;8.48;;
27199;SDS011;14714;48.106;11.546;2023-06-19T00:07:53;11.65;;;9.02;;
27199;SDS011;14714;48.106;11.546;2023-06-19T00:10:20;11.20;;;9.05;;
27199;SDS011;14714;48.106;11.546;2023-06-19T00:12:47;11.68;;;8.95;;
27199;SDS011;14714;48.106;11.546;2023-06-19T00:15:14;9.82;;;8.70;;
27199;SDS011;14714;48.106;11.546;2023-06-19T00:17:41;11.27;;;7.88;;
27199;SDS011;14714;48.106;11.546;2023-06-19T00:20:09;11.25;;;8.60;;
27199;SDS011;14714;48.106;11.546;2023-06-19T00:22:36;10.30;;;8.70;;
27199;SDS011;14714;48.106;11.546;2023-06-19T00:25:03;11.15;;;8.80;;
27199;SDS011;14714;48.106;11.546;2023-06-19T00:27:30;12.30;;;9.85;;
27199;SDS011;14714;48.106;11.546;2023-06-19T00:29:57;12.45;;;10.15;;
27199;SDS011;14714;48.106;11.546;2023-06-19T00:32:29;12.57;;;10.00;;
27199;SDS011;14714;48.106;11.546;2023-06-19T00:34:56;15.82;;;10.10;;
27199;SDS011;14714;48.106;11.546;2023-06-19T00:37:23;13.02;;;10.85;;
27199;SDS011;14714;48.106;11.546;2023-06-19T00:39:50;10.93;;;9.68;;
27199;SDS011;14714;48.106;11.546;2023-06-19T00:42:17;11.10;;;9.50;;
27199;SDS011;14714;48.106;11.546;2023-06-19T00:44:43;11.07;;;9.50;;
27199;SDS011;14714;48.106;11.546;2023-06-19T00:47:10;12.73;;;10.57;;
27199;SDS011;14714;48.106;11.546;2023-06-19T00:49:37;12.07;;;10.15;;
27199;SDS011;14714;48.106;11.546;2023-06-19T00:52:04;13.35;;;9.82;;
27199;SDS011;14714;48.106;11.546;2023-06-19T00:54:32;11.98;;;10.13;;
27199;SDS011;14714;48.106;11.546;2023-06-19T00:56:59;10.57;;;9.48;;
27199;SDS011;14714;48.106;11.546;2023-06-19T00:59:27;11.98;;;9.90;;
27199;SDS011;14714;48.106;11.546;2023-06-19T01:01:55;10.40;;;8.93;;
27199;SDS011;14714;48.106;11.546;2023-06-19T01:04:23;10.35;;;8.70;;
27199;SDS011;14714;48.106;11.546;2023-06-19T01:06:56;10.75;;;9.05;;
27199;SDS011;14714;48.106;11.546;2023-06-19T01:09:46;11.80;;;9.52;;
27199;SDS011;14714;48.106;11.546;2023-06-19T01:12:20;10.73;;;9.45;;
27199;SDS011;14714;48.106;11.546;2023-06-19T01:14:57;10.52;;;9.10;;
27199;SDS011;14714;48.106;11.546;2023-06-19T01:17:28;10.55;;;8.98;;
27199;SDS011;14714;48.106;11.546;2023-06-19T01:19:55;11.10;;;8.85;;
27199;SDS011;14714;48.106;11.546;2023-06-19T01:22:30;12.60;;;9.38;;
27199;SDS011;14714;48.106;11.546;2023-06-19T01:24:57;12.43;;;9.70;;
27199;SDS011;14714;48.106;11.546;2023-06-19T01:27:25;11.52;;;9.60;;
27199;SDS011;14714;48.106;11.546;2023-06-19T01:29:56;11.23;;;9.70;;
27199;SDS011;14714;48.106;11.546;2023-06-19T01:32:58;10.88;;;9.50;;
27199;SDS011;14714;48.106;11.546;2023-06-19T01:35:27;12.73;;;10.20;;
27199;SDS011;14714;48.106;11.546;2023-06-19T01:40:23;11.80;;;10.30;;
27199;SDS011;14714;48.106;11.546;2023-06-19T01:42:54;10.85;;;9.55;;
27199;SDS011;14714;48.106;11.546;2023-06-19T01:45:21;10.75;;;9.48;;
27199;SDS011;14714;48.106;11.546;2023-06-19T01:47:48;13.18;;;10.18;;
27199;SDS011;14714;48.106;11.546;2023-06-19T01:50:15;10.60;;;8.90;;
27199;SDS011;14714;48.106;11.546;2023-06-19T01:52:43;11.43;;;9.63;;
27199;SDS011;14714;48.106;11.546;2023-06-19T01:55:10;13.55;;;10.13;;
27199;SDS011;14714;48.106;11.546;2023-06-19T01:57:38;11.35;;;9.55;;
27199;SDS011;14714;48.106;11.546;2023-06-19T02:00:05;11.05;;;9.38;;
27199;SDS011;14714;48.106;11.546;2023-06-19T02:02:34;10.18;;;9.18;;
27199;SDS011;14714;48.106;11.546;2023-06-19T02:05:01;11.00;;;8.98;;
27199;SDS011;14714;48.106;11.546;2023-06-19T02:07:28;12.00;;;9.60;;
27199;SDS011;14714;48.106;11.546;2023-06-19T02:09:54;10.88;;;9.25;;
27199;SDS011;14714;48.106;11.546;2023-06-19T02:12:21;10.70;;;9.32;;
27199;SDS011;14714;48.106;11.546;2023-06-19T02:14:48;12.40;;;10.52;;
27199;SDS011;14714;48.106;11.546;2023-06-19T02:17:15;13.85;;;10.05;;
27199;SDS011;14714;48.106;11.546;2023-06-19T02:19:42;14.13;;;10.68;;
27199;SDS011;14714;48.106;11.546;2023-06-19T02:22:09;10.40;;;9.30;;
27199;SDS011;14714;48.106;11.546;2023-06-19T02:24:36;10.77;;;9.43;;
27199;SDS011;14714;48.106;11.546;2023-06-19T02:27:04;11.48;;;9.55;;
27199;SDS011;14714;48.106;11.546;2023-06-19T02:29:31;10.85;;;9.65;;
27199;SDS011;14714;48.106;11.546;2023-06-19T02:32:00;11.00;;;9.65;;
27199;SDS011;14714;48.106;11.546;2023-06-19T02:34:28;10.82;;;9.55;;
27199;SDS011;14714;48.106;11.546;2023-06-19T02:36:55;11.07;;;9.40;;
27199;SDS011;14714;48.106;11.546;2023-06-19T02:39:22;11.70;;;10.07;;
27199;SDS011;14714;48.106;11.546;2023-06-19T02:41:49;10.68;;;9.38;;
27199;SDS011;14714;48.106;11.546;2023-06-19T02:44:16;13.93;;;10.00;;
27199;SDS011;14714;48.106;11.546;2023-06-19T02:46:43;16.52;;;11.38;;
27199;SDS011;14714;48.106;11.546;2023-06-19T02:49:10;14.15;;;10.60;;
27199;SDS011;14714;48.106;11.546;2023-06-19T02:51:37;11.88;;;9.68;;
27199;SDS011;14714;48.106;11.546;2023-06-19T02:54:07;11.75;;;9.70;;
27199;SDS011;14714;48.106;11.546;2023-06-19T02:56:34;13.68;;;10.35;;
27199;SDS011;14714;48.106;11.546;2023-06-19T02:59:01;10.93;;;9.32;;
27199;SDS011;14714;48.106;11.546;2023-06-19T03:01:28;11.00;;;9.80;;
27199;SDS011;14714;48.106;11.546;2023-06-19T03:03:55;12.00;;;9.60;;
27199;SDS011;14714;48.106;11.546;2023-06-19T03:06:22;11.50;;;10.20;;
27199;SDS011;14714;48.106;11.546;2023-06-19T03:08:49;13.02;;;11.02;;
27199;SDS011;14714;48.106;11.546;2023-06-19T03:11:16;12.15;;;9.93;;
27199;SDS011;14714;48.106;11.546;2023-06-19T03:13:53;11.15;;;9.27;;
27199;SDS011;14714;48.106;11.546;2023-06-19T03:16:20;11.27;;;9.40;;
27199;SDS011;14714;48.106;11.546;2023-06-19T03:18:48;11.93;;;10.07;;
27199;SDS011;14714;48.106;11.546;2023-06-19T03:23:46;13.60;;;10.43;;
27199;SDS011;14714;48.106;11.546;2023-06-19T03:26:13;10.88;;;9.70;;
27199;SDS011;14714;48.106;11.546;2023-06-19T03:28:40;11.15;;;9.52;;
27199;SDS011;14714;48.106;11.546;2023-06-19T03:31:07;14.57;;;10.18;;
27199;SDS011;14714;48.106;11.546;2023-06-19T03:33:34;11.45;;;10.10;;
27199;SDS011;14714;48.106;11.546;2023-06-19T03:36:01;12.40;;;9.90;;
27199;SDS011;14714;48.106;11.546;2023-06-19T03:38:28;11.48;;;9.77;;
27199;SDS011;14714;48.106;11.546;2023-06-19T03:40:54;11.05;;;9.85;;
27199;SDS011;14714;48.106;11.546;2023-06-19T03:43:21;11.52;;;10.10;;
27199;SDS011;14714;48.106;11.546;2023-06-19T03:45:48;10.95;;;9.43;;
27199;SDS011;14714;48.106;11.546;2023-06-19T03:48:15;12.60;;;10.23;;
27199;SDS011;14714;48.106;11.546;2023-06-19T03:50:43;13.07;;;9.68;;
27199;SDS011;14714;48.106;11.546;2023-06-19T03:53:10;12.80;;;10.10;;
27199;SDS011;14714;48.106;11.546;2023-06-19T03:55:37;13.77;;;10.15;;
27199;SDS011;14714;48.106;11.546;2023-06-19T03:58:04;11.40;;;9.63;;
27199;SDS011;14714;48.106;11.546;2023-06-19T04:00:32;13.50;;;10.38;;
27199;SDS011;14714;48.106;11.546;2023-06-19T04:02:59;12.35;;;10.18;;
27199;SDS011;14714;48.106;11.546;2023-06-19T04:05:26;10.73;;;9.52;;
27199;SDS011;14714;48.106;11.546;2023-06-19T04:07:53;12.63;;;10.07;;
27199;SDS011;14714;48.106;11.546;2023-06-19T04:10:20;14.48;;;10.13;;
27199;SDS011;14714;48.106;11.546;2023-06-19T04:12:47;11.48;;;9.98;;
27199;SDS011;14714;48.106;11.546;2023-06-19T04:15:14;13.30;;;9.98;;
27199;SDS011;14714;48.106;11.546;2023-06-19T04:17:41;10.93;;;9.63;;
27199;SDS011;14714;48.106;11.546;2023-06-19T04:20:08;10.63;;;9.52;;
27199;SDS011;14714;48.106;11.546;2023-06-19T04:22:38;12.02;;;10.10;;
27199;SDS011;14714;48.106;11.546;2023-06-19T04:25:07;13.48;;;10.25;;
27199;SDS011;14714;48.106;11.546;2023-06-19T04:27:36;12.57;;;9.23;;
27199;SDS011;14714;48.106;11.546;2023-06-19T04:30:03;18.13;;;10.57;;
27199;SDS011;14714;48.106;11.546;2023-06-19T04:32:33;12.18;;;10.10;;
27199;SDS011;14714;48.106;11.546;2023-06-19T04:35:08;11.57;;;10.05;;
27199;SDS011;14714;48.106;11.546;2023-06-19T04:37:36;11.63;;;10.43;;
27199;SDS011;14714;48.106;11.546;2023-06-19T04:40:03;12.20;;;10.20;;
27199;SDS011;14714;48.106;11.546;2023-06-19T04:42:31;11.85;;;10.27;;
27199;SDS011;14714;48.106;11.546;2023-06-19T04:44:57;13.85;;;10.00;;
27199;SDS011;14714;48.106;11.546;2023-06-19T04:47:26;11.57;;;10.02;;
27199;SDS011;14714;48.106;11.546;2023-06-19T04:50:06;11.88;;;9.98;;
27199;SDS011;14714;48.106;11.546;2023-06-19T04:52:34;13.52;;;10.38;;
27199;SDS011;14714;48.106;11.546;2023-06-19T04:55:01;12.30;;;9.98;;
27199;SDS011;14714;48.106;11.546;2023-06-19T04:57:28;13.48;;;10.40;;
27199;SDS011;14714;48.106;11.546;2023-06-19T04:59:54;13.70;;;10.23;;
27199;SDS011;14714;48.106;11.546;2023-06-19T05:02:21;12.32;;;10.23;;
27199;SDS011;14714;48.106;11.546;2023-06-19T05:04:50;13.77;;;10.43;;
27199;SDS011;14714;48.106;11.546;2023-06-19T05:07:17;11.30;;;9.88;;
27199;SDS011;14714;48.106;11.546;2023-06-19T05:09:44;13.20;;;10.45;;
27199;SDS011;14714;48.106;11.546;2023-06-19T05:12:11;11.93;;;10.57;;
27199;SDS011;14714;48.106;11.546;2023-06-19T05:14:38;14.25;;;10.32;;
27199;SDS011;14714;48.106;11.546;2023-06-19T05:17:05;18.02;;;11.00;;
27199;SDS011;14714;48.106;11.546;2023-06-19T05:19:33;14.15;;;10.00;;
27199;SDS011;14714;48.106;11.546;2023-06-19T05:22:00;14.68;;;11.02;;
27199;SDS011;14714;48.106;11.546;2023-06-19T05:24:27;12.80;;;11.02;;
27199;SDS011;14714;48.106;11.546;2023-06-19T05:26:54;35.22;;;11.55;;
27199;SDS011;14714;48.106;11.546;2023-06-19T05:29:21;17.13;;;11.38;;
27199;SDS011;14714;48.106;11.546;2023-06-19T05:31:48;20.20;;;11.43;;
27199;SDS011;14714;48.106;11.546;2023-06-19T05:34:15;16.30;;;10.98;;
27199;SDS011;14714;48.106;11.546;2023-06-19T05:36:41;37.90;;;12.80;;
27199;SDS011;14714;48.106;11.546;2023-06-19T05:39:13;29.20;;;11.60;;
27199;SDS011;14714;48.106;11.546;2023-06-19T05:41:40;32.05;;;11.77;;
27199;SDS011;14714;48.106;11.546;2023-06-19T05:44:08;19.30;;;11.95;;
27199;SDS011;14714;48.106;11.546;2023-06-19T05:46:35;18.55;;;11.20;;
27199;SDS011;14714;48.106;11.546;2023-06-19T05:49:02;21.73;;;11.10;;
27199;SDS011;14714;48.106;11.546;2023-06-19T05:51:29;20.73;;;11.05;;
27199;SDS011;14714;48.106;11.546;2023-06-19T05:53:56;20.95;;;11.00;;
27199;SDS011;14714;48.106;11.546;2023-06-19T05:56:30;16.92;;;10.30;;
27199;SDS011;14714;48.106;11.546;2023-06-19T05:58:59;16.77;;;10.70;;
27199;SDS011;14714;48.106;11.546;2023-06-19T06:01:28;15.93;;;10.70;;
27199;SDS011;14714;48.106;11.546;2023-06-19T06:03:56;21.80;;;10.27;;
27199;SDS011;14714;48.106;11.546;2023-06-19T06:06:23;24.85;;;11.50;;
27199;SDS011;14714;48.106;11.546;2023-06-19T06:08:50;29.05;;;10.57;;
27199;SDS011;14714;48.106;11.546;2023-06-19T06:11:21;26.00;;;10.63;;
27199;SDS011;14714;48.106;11.546;2023-06-19T06:13:48;18.95;;;9.82;;
27199;SDS011;14714;48.106;11.546;2023-06-19T06:16:15;20.35;;;9.43;;
27199;SDS011;14714;48.106;11.546;2023-06-19T06:18:43;22.08;;;10.25;;
27199;SDS011;14714;48.106;11.546;2023-06-19T06:21:10;12.95;;;9.15;;
27199;SDS011;14714;48.106;11.546;2023-06-19T06:23:40;13.25;;;8.15;;
27199;SDS011;14714;48.106;11.546;2023-06-19T06:26:08;10.90;;;8.32;;
27199;SDS011;14714;48.106;11.546;2023-06-19T06:28:35;10.30;;;7.82;;
27199;SDS011;14714;48.106;11.546;2023-06-19T06:31:02;10.93;;;7.72;;
27199;SDS011;14714;48.106;11.546;2023-06-19T06:33:28;16.17;;;7.72;;
27199;SDS011;14714;48.106;11.546;2023-06-19T06:35:57;10.73;;;7.32;;
27199;SDS011;14714;48.106;11.546;2023-06-19T06:38:25;10.75;;;7.28;;
27199;SDS011;14714;48.106;11.546;2023-06-19T06:40:52;10.35;;;7.35;;
27199;SDS011;14714;48.106;11.546;2023-06-19T06:43:19;9.50;;;6.88;;
27199;SDS011;14714;48.106;11.546;2023-06-19T06:45:47;15.00;;;7.00;;
27199;SDS011;14714;48.106;11.546;2023-06-19T06:48:14;12.35;;;7.30;;
27199;SDS011;14714;48.106;11.546;2023-06-19T06:50:42;11.90;;;7.32;;
27199;SDS011;14714;48.106;11.546;2023-06-19T06:53:09;12.63;;;7.15;;
27199;SDS011;14714;48.106;11.546;2023-06-19T06:55:36;11.57;;;6.70;;
27199;SDS011;14714;48.106;11.546;2023-06-19T06:58:03;11.73;;;7.22;;
27199;SDS011;14714;48.106;11.546;2023-06-19T07:00:31;9.70;;;6.32;;
27199;SDS011;14714;48.106;11.546;2023-06-19T07:02:58;10.18;;;6.90;;
27199;SDS011;14714;48.106;11.546;2023-06-19T07:05:25;9.23;;;6.22;;
27199;SDS011;14714;48.106;11.546;2023-06-19T07:07:52;7.10;;;6.40;;
27199;SDS011;14714;48.106;11.546;2023-06-19T07:10:19;9.45;;;6.50;;
27199;SDS011;14714;48.106;11.546;2023-06-19T07:12:49;8.30;;;6.43;;
27199;SDS011;14714;48.106;11.546;2023-06-19T07:15:17;7.90;;;6.00;;
27199;SDS011;14714;48.106;11.546;2023-06-19T07:17:44;8.07;;;5.78;;
27199;SDS011;14714;48.106;11.546;2023-06-19T07:20:12;9.70;;;6.10;;
27199;SDS011;14714;48.106;11.546;2023-06-19T07:22:40;7.43;;;5.75;;
27199;SDS011;14714;48.106;11.546;2023-06-19T07:25:09;11.88;;;6.03;;
27199;SDS011;14714;48.106;11.546;2023-06-19T07:27:38;7.65;;;5.82;;
27199;SDS011;14714;48.106;11.546;2023-06-19T07:30:06;7.63;;;6.13;;
27199;SDS011;14714;48.106;11.546;2023-06-19T07:32:34;10.63;;;6.18;;
27199;SDS011;14714;48.106;11.546;2023-06-19T07:35:01;7.22;;;5.93;;
27199;SDS011;14714;48.106;11.546;2023-06-19T07:37:27;6.10;;;5.50;;
27199;SDS011;14714;48.106;11.546;2023-06-19T07:39:55;8.02;;;5.43;;
27199;SDS011;14714;48.106;11.546;2023-06-19T07:42:22;6.22;;;5.20;;
27199;SDS011;14714;48.106;11.546;2023-06-19T07:44:49;6.57;;;5.22;;
27199;SDS011;14714;48.106;11.546;2023-06-19T07:47:16;6.93;;;4.97;;
27199;SDS011;14714;48.106;11.546;2023-06-19T07:49:47;7.05;;;4.63;;
27199;SDS011;14714;48.106;11.546;2023-06-19T07:52:14;5.43;;;4.93;;
27199;SDS011;14714;48.106;11.546;2023-06-19T07:54:51;6.72;;;4.93;;
27199;SDS011;14714;48.106;11.546;2023-06-19T07:57:20;8.82;;;4.57;;
27199;SDS011;14714;48.106;11.546;2023-06-19T07:59:48;6.63;;;4.28;;
27199;SDS011;14714;48.106;11.546;2023-06-19T08:02:16;6.50;;;4.63;;
27199;SDS011;14714;48.106;11.546;2023-06-19T08:04:44;9.73;;;4.75;;
27199;SDS011;14714;48.106;11.546;2023-06-19T08:07:12;5.57;;;4.55;;
27199;SDS011;14714;48.106;11.546;2023-06-19T08:09:39;6.53;;;4.47;;
27199;SDS011;14714;48.106;11.546;2023-06-19T08:12:06;5.88;;;4.43;;
27199;SDS011;14714;48.106;11.546;2023-06-19T08:14:33;6.63;;;4.38;;
27199;SDS011;14714;48.106;11.546;2023-06-19T08:17:00;5.15;;;4.07;;
27199;SDS011;14714;48.106;11.546;2023-06-19T08:19:27;7.32;;;4.68;;
27199;SDS011;14714;48.106;11.546;2023-06-19T08:21:54;6.53;;;4.30;;
27199;SDS011;14714;48.106;11.546;2023-06-19T08:24:21;6.35;;;5.13;;
27199;SDS011;14714;48.106;11.546;2023-06-19T08:26:48;5.13;;;4.63;;
27199;SDS011;14714;48.106;11.546;2023-06-19T08:29:18;8.15;;;4.70;;
27199;SDS011;14714;48.106;11.546;2023-06-19T08:31:45;7.53;;;5.00;;
27199;SDS011;14714;48.106;11.546;2023-06-19T08:34:12;5.50;;;4.60;;
27199;SDS011;14714;48.106;11.546;2023-06-19T08:36:39;5.25;;;4.75;;
27199;SDS011;14714;48.106;11.546;2023-06-19T08:39:06;6.70;;;4.38;;
27199;SDS011;14714;48.106;11.546;2023-06-19T08:41:38;4.78;;;4.25;;
27199;SDS011;14714;48.106;11.546;2023-06-19T08:44:05;10.10;;;4.05;;
27199;SDS011;14714;48.106;11.546;2023-06-19T08:46:32;11.15;;;4.13;;
27199;SDS011;14714;48.106;11.546;2023-06-19T08:49:01;8.05;;;4.00;;
27199;SDS011;14714;48.106;11.546;2023-06-19T08:51:28;5.50;;;4.43;;
27199;SDS011;14714;48.106;11.546;2023-06-19T08:54:00;5.73;;;4.20;;
27199;SDS011;14714;48.106;11.546;2023-06-19T08:56:30;4.75;;;4.05;;
27199;SDS011;14714;48.106;11.546;2023-06-19T08:59:10;7.00;;;4.53;;
27199;SDS011;14714;48.106;11.546;2023-06-19T09:01:48;10.68;;;4.60;;
27199;SDS011;14714;48.106;11.546;2023-06-19T09:04:21;6.27;;;4.23;;
27199;SDS011;14714;48.106;11.546;2023-06-19T09:06:50;7.43;;;4.60;;
27199;SDS011;14714;48.106;11.546;2023-06-19T09:09:25;4.72;;;4.15;;
27199;SDS011;14714;48.106;11.546;2023-06-19T09:12:12;4.10;;;3.70;;
27199;SDS011;14714;48.106;11.546;2023-06-19T09:14:41;5.07;;;3.60;;
27199;SDS011;14714;48.106;11.546;2023-06-19T09:17:16;4.72;;;3.38;;
27199;SDS011;14714;48.106;11.546;2023-06-19T09:19:49;5.15;;;3.80;;
27199;SDS011;14714;48.106;11.546;2023-06-19T09:22:17;9.05;;;3.90;;
27199;SDS011;14714;48.106;11.546;2023-06-19T09:24:45;4.10;;;3.70;;
27199;SDS011;14714;48.106;11.546;2023-06-19T09:27:15;4.70;;;3.70;;
27199;SDS011;14714;48.106;11.546;2023-06-19T09:29:50;5.15;;;4.40;;
27199;SDS011;14714;48.106;11.546;2023-06-19T09:32:21;6.80;;;4.20;;
27199;SDS011;14714;48.106;11.546;2023-06-19T09:34:51;6.68;;;5.18;;
27199;SDS011;14714;48.106;11.546;2023-06-19T09:37:21;5.95;;;4.18;;
27199;SDS011;14714;48.106;11.546;2023-06-19T09:42:33;6.05;;;4.07;;
27199;SDS011;14714;48.106;11.546;2023-06-19T09:45:05;4.22;;;3.83;;
27199;SDS011;14714;48.106;11.546;2023-06-19T09:47:37;6.57;;;4.25;;
27199;SDS011;14714;48.106;11.546;2023-06-19T09:50:06;8.13;;;4.53;;
27199;SDS011;14714;48.106;11.546;2023-06-19T09:52:33;12.25;;;4.65;;
27199;SDS011;14714;48.106;11.546;2023-06-19T09:55:01;5.43;;;4.30;;
27199;SDS011;14714;48.106;11.546;2023-06-19T09:57:31;6.00;;;4.57;;
27199;SDS011;14714;48.106;11.546;2023-06-19T09:59:59;6.78;;;5.00;;
27199;SDS011;14714;48.106;11.546;2023-06-19T10:02:36;8.82;;;4.75;;
27199;SDS011;14714;48.106;11.546;2023-06-19T10:05:04;5.78;;;5.00;;
27199;SDS011;14714;48.106;11.546;2023-06-19T10:07:34;7.37;;;5.00;;
27199;SDS011;14714;48.106;11.546;2023-06-19T10:10:03;8.10;;;4.90;;
27199;SDS011;14714;48.106;11.546;2023-06-19T10:12:41;8.15;;;5.22;;
27199;SDS011;14714;48.106;11.546;2023-06-19T10:17:48;6.35;;;5.15;;
27199;SDS011;14714;48.106;11.546;2023-06-19T10:20:27;8.27;;;5.00;;
27199;SDS011;14714;48.106;11.546;2023-06-19T10:25:42;9.05;;;5.80;;
27199;SDS011;14714;48.106;11.546;2023-06-19T10:28:22;6.38;;;5.30;;
27199;SDS011;14714;48.106;11.546;2023-06-19T10:33:24;5.95;;;4.78;;
27199;SDS011;14714;48.106;11.546;2023-06-19T10:35:53;6.13;;;5.40;;
27199;SDS011;14714;48.106;11.546;2023-06-19T10:38:21;7.38;;;5.30;;
27199;SDS011;14714;48.106;11.546;2023-06-19T10:40:48;7.68;;;5.72;;
27199;SDS011;14714;48.106;11.546;2023-06-19T10:43:19;6.25;;;5.13;;
27199;SDS011;14714;48.106;11.546;2023-06-19T10:45:48;7.15;;;5.15;;
27199;SDS011;14714;48.106;11.546;2023-06-19T10:48:24;8.55;;;5.20;;
27199;SDS011;14714;48.106;11.546;2023-06-19T10:50:51;6.00;;;5.00;;
27199;SDS011;14714;48.106;11.546;2023-06-19T10:53:34;5.55;;;5.05;;
27199;SDS011;14714;48.106;11.546;2023-06-19T10:56:01;5.50;;;4.85;;
27199;SDS011;14714;48.106;11.546;2023-06-19T10:58:37;6.00;;;5.30;;
27199;SDS011;14714;48.106;11.546;2023-06-19T11:01:04;5.60;;;4.93;;
27199;SDS011;14714;48.106;11.546;2023-06-19T11:03:36;10.32;;;4.57;;
27199;SDS011;14714;48.106;11.546;2023-06-19T11:06:04;7.05;;;4.93;;
27199;SDS011;14714;48.106;11.546;2023-06-19T11:08:31;5.32;;;4.80;;
27199;SDS011;14714;48.106;11.546;2023-06-19T11:11:06;5.72;;;4.70;;
27199;SDS011;14714;48.106;11.546;2023-06-19T11:13:34;5.90;;;4.80;;
27199;SDS011;14714;48.106;11.546;2023-06-19T11:16:02;5.55;;;4.43;;
27199;SDS011;14714;48.106;11.546;2023-06-19T11:18:29;5.32;;;4.75;;
27199;SDS011;14714;48.106;11.546;2023-06-19T11:20:56;6.03;;;4.60;;
27199;SDS011;14714;48.106;11.546;2023-06-19T11:23:29;5.68;;;4.32;;
27199;SDS011;14714;48.106;11.546;2023-06-19T11:26:06;5.72;;;4.45;;
27199;SDS011;14714;48.106;11.546;2023-06-19T11:28:33;6.95;;;4.47;;
27199;SDS011;14714;48.106;11.546;2023-06-19T11:31:02;4.78;;;4.25;;
27199;SDS011;14714;48.106;11.546;2023-06-19T11:33:30;4.45;;;4.05;;
27199;SDS011;14714;48.106;11.546;2023-06-19T11:35:59;5.38;;;4.40;;
27199;SDS011;14714;48.106;11.546;2023-06-19T11:38:27;5.60;;;4.15;;
27199;SDS011;14714;48.106;11.546;2023-06-19T11:40:55;4.85;;;4.35;;
27199;SDS011;14714;48.106;11.546;2023-06-19T11:43:23;5.70;;;4.03;;
27199;SDS011;14714;48.106;11.546;2023-06-19T11:46:16;6.10;;;4.20;;
27199;SDS011;14714;48.106;11.546;2023-06-19T11:48:42;6.97;;;4.10;;
27199;SDS011;14714;48.106;11.546;2023-06-19T11:51:24;5.30;;;4.07;;
27199;SDS011;14714;48.106;11.546;2023-06-19T11:53:51;6.15;;;4.03;;
27199;SDS011;14714;48.106;11.546;2023-06-19T11:56:18;7.22;;;4.28;;
27199;SDS011;14714;48.106;11.546;2023-06-19T11:58:45;6.53;;;4.10;;
27199;SDS011;14714;48.106;11.546;2023-06-19T12:01:13;4.97;;;3.95;;
27199;SDS011;14714;48.106;11.546;2023-06-19T12:03:40;6.72;;;4.65;;
27199;SDS011;14714;48.106;11.546;2023-06-19T12:06:08;4.53;;;3.83;;
27199;SDS011;14714;48.106;11.546;2023-06-19T12:08:35;6.00;;;3.80;;
27199;SDS011;14714;48.106;11.546;2023-06-19T12:11:03;6.60;;;3.58;;
27199;SDS011;14714;48.106;11.546;2023-06-19T12:13:34;6.03;;;4.10;;
27199;SDS011;14714;48.106;11.546;2023-06-19T12:16:01;5.30;;;3.78;;
27199;SDS011;14714;48.106;11.546;2023-06-19T12:18:28;5.68;;;3.97;;
27199;SDS011;14714;48.106;11.546;2023-06-19T12:20:54;4.65;;;4.10;;
27199;SDS011;14714;48.106;11.546;2023-06-19T12:23:22;6.90;;;3.75;;
27199;SDS011;14714;48.106;11.546;2023-06-19T12:25:52;5.25;;;3.95;;
27199;SDS011;14714;48.106;11.546;2023-06-19T12:28:20;4.43;;;3.90;;
27199;SDS011;14714;48.106;11.546;2023-06-19T12:31:12;4.80;;;4.28;;
27199;SDS011;14714;48.106;11.546;2023-06-19T12:34:14;5.13;;;3.90;;
27199;SDS011;14714;48.106;11.546;2023-06-19T12:36:56;5.70;;;3.88;;
27199;SDS011;14714;48.106;11.546;2023-06-19T12:39:23;4.88;;;4.03;;
27199;SDS011;14714;48.106;11.546;2023-06-19T12:41:53;6.15;;;3.92;;
27199;SDS011;14714;48.106;11.546;2023-06-19T12:44:21;8.00;;;4.22;;
27199;SDS011;14714;48.106;11.546;2023-06-19T12:46:49;4.72;;;4.22;;
27199;SDS011;14714;48.106;11.546;2023-06-19T12:49:16;6.28;;;4.28;;
27199;SDS011;14714;48.106;11.546;2023-06-19T12:51:44;6.78;;;3.88;;
27199;SDS011;14714;48.106;11.546;2023-06-19T12:54:11;5.70;;;4.20;;
27199;SDS011;14714;48.106;11.546;2023-06-19T12:56:38;6.40;;;4.28;;
27199;SDS011;14714;48.106;11.546;2023-06-19T12:59:04;7.28;;;4.15;;
27199;SDS011;14714;48.106;11.546;2023-06-19T13:01:31;4.63;;;4.05;;
27199;SDS011;14714;48.106;11.546;2023-06-19T13:03:58;5.15;;;4.10;;
27199;SDS011;14714;48.106;11.546;2023-06-19T13:06:26;5.20;;;4.15;;
27199;SDS011;14714;48.106;11.546;2023-06-19T13:08:53;7.10;;;4.50;;
27199;SDS011;14714;48.106;11.546;2023-06-19T13:11:21;7.40;;;4.22;;
27199;SDS011;14714;48.106;11.546;2023-06-19T13:13:48;6.88;;;4.25;;
27199;SDS011;14714;48.106;11.546;2023-06-19T13:16:15;4.50;;;4.10;;
27199;SDS011;14714;48.106;11.546;2023-06-19T13:18:43;5.60;;;4.10;;
27199;SDS011;14714;48.106;11.546;2023-06-19T13:21:11;5.32;;;3.88;;
27199;SDS011;14714;48.106;11.546;2023-06-19T13:23:38;6.00;;;4.22;;
27199;SDS011;14714;48.106;11.546;2023-06-19T13:26:05;8.85;;;4.10;;
27199;SDS011;14714;48.106;11.546;2023-06-19T13:28:33;4.40;;;4.00;;
27199;SDS011;14714;48.106;11.546;2023-06-19T13:31:00;4.97;;;4.05;;
27199;SDS011;14714;48.106;11.546;2023-06-19T13:33:27;5.43;;;4.15;;
27199;SDS011;14714;48.106;11.546;2023-06-19T13:35:54;4.82;;;4.30;;
27199;SDS011;14714;48.106;11.546;2023-06-19T13:38:21;5.03;;;4.32;;
27199;SDS011;14714;48.106;11.546;2023-06-19T13:40:48;6.50;;;4.05;;
27199;SDS011;14714;48.106;11.546;2023-06-19T13:43:16;10.73;;;4.50;;
27199;SDS011;14714;48.106;11.546;2023-06-19T13:45:44;9.60;;;4.05;;
27199;SDS011;14714;48.106;11.546;2023-06-19T13:48:11;4.72;;;3.90;;
27199;SDS011;14714;48.106;11.546;2023-06-19T13:50:38;5.88;;;4.32;;
27199;SDS011;14714;48.106;11.546;2023-06-19T13:53:05;8.75;;;4.35;;
27199;SDS011;14714;48.106;11.546;2023-06-19T13:55:32;5.50;;;4.10;;
27199;SDS011;14714;48.106;11.546;2023-06-19T13:58:00;5.13;;;4.35;;
27199;SDS011;14714;48.106;11.546;2023-06-19T14:00:27;6.05;;;4.10;;
27199;SDS011;14714;48.106;11.546;2023-06-19T14:02:56;5.47;;;4.32;;
27199;SDS011;14714;48.106;11.546;2023-06-19T14:07:54;6.03;;;4.60;;
27199;SDS011;14714;48.106;11.546;2023-06-19T14:10:22;7.97;;;4.38;;
27199;SDS011;14714;48.106;11.546;2023-06-19T14:12:50;7.50;;;4.30;;
27199;SDS011;14714;48.106;11.546;2023-06-19T14:15:18;5.65;;;4.20;;
27199;SDS011;14714;48.106;11.546;2023-06-19T14:17:45;6.05;;;4.45;;
27199;SDS011;14714;48.106;11.546;2023-06-19T14:20:15;7.00;;;4.45;;
27199;SDS011;14714;48.106;11.546;2023-06-19T14:22:42;8.52;;;4.50;;
27199;SDS011;14714;48.106;11.546;2023-06-19T14:25:09;9.80;;;4.80;;
27199;SDS011;14714;48.106;11.546;2023-06-19T14:27:36;7.00;;;4.43;;
27199;SDS011;14714;48.106;11.546;2023-06-19T14:30:03;7.32;;;4.05;;
27199;SDS011;14714;48.106;11.546;2023-06-19T14:32:31;4.88;;;4.20;;
27199;SDS011;14714;48.106;11.546;2023-06-19T14:35:01;5.32;;;3.90;;
27199;SDS011;14714;48.106;11.546;2023-06-19T14:37:28;10.70;;;4.57;;
27199;SDS011;14714;48.106;11.546;2023-06-19T14:39:56;6.72;;;4.30;;
27199;SDS011;14714;48.106;11.546;2023-06-19T14:42:24;5.65;;;4.40;;
27199;SDS011;14714;48.106;11.546;2023-06-19T14:44:51;5.50;;;4.38;;
27199;SDS011;14714;48.106;11.546;2023-06-19T14:47:18;4.72;;;4.20;;
27199;SDS011;14714;48.106;11.546;2023-06-19T14:49:45;5.70;;;4.30;;
27199;SDS011;14714;48.106;11.546;2023-06-19T14:52:12;5.75;;;4.28;;